Terminal Aerodrome Forecast
Issued by NWS

Home | Current Version | Previous Version | Text Only | Print | Product List | Glossary On
Versions: 1 2 3 4 5 6 7 8 9 10 11 12 13 14 15 16 17
000
FTUS43 KPAH 112320
TAFOWB
TAF
KOWB 112320Z 1200/1224 24010G18KT P6SM SCT250
     FM120300 29012G18KT P6SM SCT025 BKN050
     FM120600 31015G25KT P6SM OVC025
     FM121200 32016G25KT P6SM BKN035
     FM121800 31014G22KT P6SM SKC=

USA.gov is the U.S. government's official web portal to all federal, state and local government web resources and services.